Time;durP1;ratioP1;P1;durP2;ratioP2;P2;SDS_P1;SDS_P2;PMS_P1;PMS_P2;Temp;Humidity;BMP_temperature;BMP_pressure;BME280_temperature;BME280_humidity;BME280_pressure;Samples;Min_cycle;Max_cycle;Signal;HPM_P1;HPM_P2
2021/07/13 00:01:47;;;;;;;17.87;12.90;;;16.70;99.90;;;;;;4469630;28;659410;-67
2021/07/13 00:04:36;;;;;;;20.50;14.20;;;16.70;99.90;;;;;;4437636;28;658620;-67
2021/07/13 00:07:23;;;;;;;29.40;16.70;;;16.70;99.90;;;;;;4465601;28;658989;-67
2021/07/13 00:10:12;;;;;;;25.53;14.27;;;16.70;99.90;;;;;;4434588;28;659373;-67
2021/07/13 00:12:59;;;;;;;26.87;14.00;;;16.70;99.90;;;;;;4446534;28;659163;-67
2021/07/13 00:15:47;;;;;;;24.33;13.00;;;16.60;99.90;;;;;;4456998;28;659332;-67
2021/07/13 00:18:37;;;;;;;23.97;13.63;;;16.60;99.90;;;;;;4445679;28;659257;-67
2021/07/13 00:21:25;;;;;;;19.27;12.03;;;16.60;99.90;;;;;;4444553;28;659068;-67
2021/07/13 00:24:13;;;;;;;20.60;12.67;;;16.60;99.90;;;;;;4465139;28;658607;-67
2021/07/13 00:27:01;;;;;;;18.87;11.67;;;16.60;99.90;;;;;;4442259;28;659197;-67
2021/07/13 00:29:48;;;;;;;19.13;11.70;;;16.60;99.90;;;;;;4465009;28;658924;-67
2021/07/13 00:32:36;;;;;;;18.70;11.80;;;16.60;99.90;;;;;;4442169;28;659314;-67
2021/07/13 00:35:23;;;;;;;21.37;13.03;;;16.60;99.90;;;;;;4457249;28;658956;-67
2021/07/13 00:38:12;;;;;;;21.07;12.60;;;16.60;99.90;;;;;;4441929;28;659763;-67
2021/07/13 00:41:00;;;;;;;21.83;13.47;;;16.60;99.90;;;;;;4427653;28;658623;-67
2021/07/13 00:43:49;;;;;;;27.40;14.70;;;16.60;99.90;;;;;;4459765;28;659970;-67
2021/07/13 00:46:46;;;;;;;27.10;14.30;;;16.60;99.90;;;;;;4433869;28;659251;-68
2021/07/13 00:49:34;;;;;;;26.30;15.07;;;16.60;99.90;;;;;;4430862;28;659139;-67
2021/07/13 00:52:21;;;;;;;32.20;15.37;;;16.60;99.90;;;;;;4467935;28;658417;-67
2021/07/13 00:55:11;;;;;;;28.65;16.25;;;16.60;99.90;;;;;;4444677;28;658626;-67
2021/07/13 00:57:59;;;;;;;30.43;16.20;;;16.60;99.90;;;;;;4450256;28;658773;-67
2021/07/13 01:00:47;;;;;;;27.57;14.93;;;16.60;99.90;;;;;;4467988;28;658178;-67
2021/07/13 01:03:35;;;;;;;31.30;15.93;;;16.60;99.90;;;;;;4446185;28;658739;-67
2021/07/13 01:06:23;;;;;;;29.50;15.57;;;16.60;99.90;;;;;;4462448;28;658831;-67
2021/07/13 01:09:12;;;;;;;29.70;15.73;;;16.60;99.90;;;;;;4445593;28;658785;-67
2021/07/13 01:12:07;;;;;;;30.33;16.03;;;16.60;99.90;;;;;;4444886;28;658305;-67
2021/07/13 01:14:56;;;;;;;28.40;15.63;;;16.60;99.90;;;;;;4438770;28;659150;-67
2021/07/13 01:17:48;;;;;;;30.77;15.83;;;16.60;99.90;;;;;;4463900;28;658575;-67
2021/07/13 01:20:56;;;;;;;31.97;15.70;;;16.60;99.90;;;;;;4436353;28;658971;-67
2021/07/13 01:23:54;;;;;;;26.87;15.40;;;16.60;99.90;;;;;;4462384;28;658715;-67
2021/07/13 01:26:50;;;;;;;29.02;15.30;;;16.60;99.90;;;;;;4405102;28;659554;-67
2021/07/13 01:29:39;;;;;;;29.60;16.03;;;16.60;99.90;;;;;;4440741;28;658753;-67
2021/07/13 01:32:28;;;;;;;33.37;17.03;;;16.60;99.90;;;;;;4441226;28;659478;-67
2021/07/13 01:35:17;;;;;;;33.40;15.87;;;16.60;99.90;;;;;;4444433;28;658917;-67
2021/07/13 01:38:04;;;;;;;27.03;15.87;;;16.60;99.90;;;;;;4438243;28;659051;-67
2021/07/13 01:40:54;;;;;;;31.60;16.70;;;16.70;99.90;;;;;;4466392;28;658530;-66
2021/07/13 01:43:42;;;;;;;29.13;17.17;;;16.60;99.90;;;;;;4431862;28;659486;-67
2021/07/13 01:46:31;;;;;;;30.77;16.52;;;16.70;99.90;;;;;;4441030;28;658998;-66
2021/07/13 01:49:20;;;;;;;34.23;17.63;;;16.60;99.90;;;;;;4455295;28;658313;-67
2021/07/13 01:52:07;;;;;;;31.60;17.37;;;16.60;99.90;;;;;;4464083;28;659746;-66
2021/07/13 01:54:55;;;;;;;32.33;17.90;;;16.60;99.90;;;;;;4442168;28;659146;-67
2021/07/13 01:57:42;;;;;;;35.10;17.37;;;16.60;99.90;;;;;;4457438;28;659755;-66
2021/07/13 02:00:30;;;;;;;29.97;17.47;;;16.60;99.90;;;;;;4444442;28;658616;-66
2021/07/13 02:03:19;;;;;;;31.97;17.30;;;16.60;99.90;;;;;;4464575;28;659127;-66
2021/07/13 02:06:07;;;;;;;31.03;16.67;;;16.70;99.90;;;;;;4440144;28;659430;-66
2021/07/13 02:08:57;;;;;;;34.87;17.70;;;16.60;99.90;;;;;;4443582;28;658463;-67
2021/07/13 02:11:44;;;;;;;34.17;18.00;;;16.60;99.90;;;;;;4446796;28;658519;-66
2021/07/13 02:14:32;;;;;;;33.22;18.33;;;16.60;99.90;;;;;;4467335;28;659762;-66
2021/07/13 02:17:19;;;;;;;34.90;18.30;;;16.60;99.90;;;;;;4447931;28;658923;-67
2021/07/13 02:20:10;;;;;;;36.73;19.77;;;16.70;99.90;;;;;;4456316;28;659359;-66
2021/07/13 02:22:57;;;;;;;31.73;18.13;;;16.70;99.90;;;;;;4442624;28;659705;-66
2021/07/13 02:25:45;;;;;;;29.00;17.23;;;16.60;99.90;;;;;;4443228;28;658571;-67
2021/07/13 02:28:34;;;;;;;28.40;17.10;;;16.60;99.90;;;;;;4466675;28;659581;-67
2021/07/13 02:31:24;;;;;;;38.57;19.47;;;16.60;99.90;;;;;;4439006;28;659681;-67
2021/07/13 02:34:12;;;;;;;36.67;19.53;;;16.60;99.90;;;;;;4447400;28;658698;-66
2021/07/13 02:37:02;;;;;;;34.37;19.27;;;16.60;99.90;;;;;;4447835;28;658612;-67
2021/07/13 02:39:49;;;;;;;36.87;20.03;;;16.60;99.90;;;;;;4447658;28;659304;-67
2021/07/13 02:42:37;;;;;;;38.17;20.20;;;16.60;99.90;;;;;;4448654;28;658807;-66
2021/07/13 02:45:25;;;;;;;33.27;19.90;;;16.60;99.90;;;;;;4447779;28;658881;-66
2021/07/13 02:48:12;;;;;;;34.03;19.50;;;16.60;99.90;;;;;;4467716;28;658910;-66
2021/07/13 02:51:00;;;;;;;34.03;19.27;;;16.60;99.90;;;;;;4448213;28;658624;-67
2021/07/13 02:54:27;;;;;;;30.50;19.43;;;16.50;99.90;;;;;;4450763;28;660084;-67
2021/07/13 02:57:16;;;;;;;31.20;18.83;;;16.50;99.90;;;;;;4406916;28;659032;-66
2021/07/13 03:00:06;;;;;;;30.23;18.43;;;16.50;99.90;;;;;;4434641;28;658523;-66
2021/07/13 03:02:54;;;;;;;29.47;18.30;;;16.50;99.90;;;;;;4466924;28;658265;-66
2021/07/13 03:05:42;;;;;;;33.23;19.07;;;16.50;99.90;;;;;;4442571;28;658905;-67
2021/07/13 03:08:30;;;;;;;36.33;18.13;;;16.50;99.90;;;;;;4439819;28;658491;-67
2021/07/13 03:11:18;;;;;;;33.93;18.87;;;16.50;99.90;;;;;;4466627;28;659675;-66
2021/07/13 03:14:08;;;;;;;32.07;19.37;;;16.50;99.90;;;;;;4439965;28;659175;-67
2021/07/13 03:16:56;;;;;;;35.30;19.83;;;16.50;99.90;;;;;;4442365;28;659289;-66
2021/07/13 03:19:44;;;;;;;31.47;18.40;;;16.50;99.90;;;;;;4459778;28;658860;-66
2021/07/13 03:22:35;;;;;;;32.73;18.60;;;16.50;99.90;;;;;;4459568;28;659256;-66
2021/07/13 03:25:25;;;;;;;31.07;19.23;;;16.50;99.90;;;;;;4437302;28;658771;-66
2021/07/13 03:28:13;;;;;;;37.50;21.03;;;16.50;99.90;;;;;;4442703;28;659376;-66
2021/07/13 03:31:02;;;;;;;43.10;23.20;;;16.60;99.90;;;;;;4441854;28;660069;-66
2021/07/13 03:33:49;;;;;;;44.63;22.40;;;16.60;99.90;;;;;;4438706;28;660497;-66
2021/07/13 03:36:37;;;;;;;39.87;22.03;;;16.70;99.90;;;;;;4465470;28;659581;-66
2021/07/13 03:39:25;;;;;;;42.93;22.83;;;16.80;99.90;;;;;;4446395;28;658492;-66
2021/07/13 03:42:13;;;;;;;40.60;21.93;;;16.90;99.90;;;;;;4465170;28;658958;-66
2021/07/13 03:45:01;;;;;;;37.87;21.97;;;17.00;99.90;;;;;;4442544;28;659469;-67
2021/07/13 03:47:50;;;;;;;40.43;22.60;;;17.00;99.90;;;;;;4465663;28;659099;-66
2021/07/13 03:50:38;;;;;;;42.07;22.43;;;17.10;99.90;;;;;;4439510;28;658217;-66
2021/07/13 03:53:25;;;;;;;39.00;22.23;;;17.20;99.90;;;;;;4446163;28;658337;-66
2021/07/13 03:56:13;;;;;;;41.08;22.63;;;17.20;99.90;;;;;;4466139;28;659061;-66
2021/07/13 03:59:01;;;;;;;37.83;21.87;;;17.30;99.90;;;;;;4446801;28;658773;-67
2021/07/13 04:01:49;;;;;;;45.53;22.17;;;17.40;99.90;;;;;;4466152;28;658786;-66
2021/07/13 04:04:38;;;;;;;44.70;22.33;;;17.40;99.90;;;;;;4442966;28;658983;-66
2021/07/13 04:07:25;;;;;;;40.97;22.30;;;17.50;99.90;;;;;;4443551;28;658975;-67
2021/07/13 04:10:14;;;;;;;39.40;21.53;;;17.60;99.90;;;;;;4460011;28;658632;-66
2021/07/13 04:13:01;;;;;;;39.22;20.58;;;17.60;99.90;;;;;;4438871;28;661448;-66
2021/07/13 04:15:49;;;;;;;43.17;21.63;;;17.70;99.90;;;;;;4446130;28;659097;-66
2021/07/13 04:18:37;;;;;;;39.97;21.43;;;17.70;99.90;;;;;;4465133;28;659247;-66
2021/07/13 04:21:26;;;;;;;37.97;20.33;;;17.70;99.90;;;;;;4443522;28;659215;-66
2021/07/13 04:24:14;;;;;;;38.65;21.65;;;17.70;99.90;;;;;;4449846;28;658312;-67
2021/07/13 04:27:02;;;;;;;38.50;21.37;;;17.80;99.90;;;;;;4464951;28;659548;-67
2021/07/13 04:29:51;;;;;;;40.47;21.07;;;17.90;99.90;;;;;;4445816;28;658822;-67
2021/07/13 04:32:38;;;;;;;36.30;20.03;;;17.90;99.90;;;;;;4464979;28;658877;-67
2021/07/13 04:35:26;;;;;;;40.93;20.90;;;17.90;99.90;;;;;;4441127;28;660075;-67
2021/07/13 04:38:14;;;;;;;39.73;21.07;;;18.00;99.90;;;;;;4464683;28;658657;-67
2021/07/13 04:41:02;;;;;;;37.10;19.97;;;18.00;99.90;;;;;;4441932;28;659680;-67
2021/07/13 04:43:50;;;;;;;42.87;20.93;;;18.00;99.90;;;;;;4445402;28;658461;-67
2021/07/13 04:46:38;;;;;;;43.80;20.07;;;18.10;99.90;;;;;;4464301;28;658548;-67
2021/07/13 04:49:31;;;;;;;35.07;20.60;;;18.10;99.90;;;;;;4440886;28;658509;-67
2021/07/13 04:52:18;;;;;;;39.40;21.57;;;18.20;99.90;;;;;;4441388;28;659047;-67
2021/07/13 04:55:09;;;;;;;40.17;21.07;;;18.30;99.90;;;;;;4438787;28;659799;-68
2021/07/13 04:57:56;;;;;;;36.70;20.37;;;18.30;99.90;;;;;;4444825;28;660094;-67
2021/07/13 05:00:44;;;;;;;37.73;20.27;;;18.40;99.90;;;;;;4456031;28;658812;-67
2021/07/13 05:03:32;;;;;;;33.63;19.63;;;18.50;99.90;;;;;;4464865;28;659605;-67
2021/07/13 05:06:20;;;;;;;35.53;20.10;;;18.50;99.90;;;;;;4444811;28;660184;-68
2021/07/13 05:09:07;;;;;;;38.27;21.17;;;18.50;99.90;;;;;;4464323;28;658976;-67
2021/07/13 05:11:56;;;;;;;37.20;20.30;;;18.50;99.90;;;;;;4445413;28;658838;-67
2021/07/13 05:14:44;;;;;;;39.87;21.37;;;18.50;99.90;;;;;;4447349;28;658304;-68
2021/07/13 05:17:32;;;;;;;35.03;20.50;;;18.60;99.90;;;;;;4465207;28;659915;-68
2021/07/13 05:20:19;;;;;;;35.57;20.13;;;18.70;99.90;;;;;;4445226;28;658698;-68
2021/07/13 05:23:10;;;;;;;39.23;20.43;;;18.70;99.90;;;;;;4463803;28;659373;-68
2021/07/13 05:25:57;;;;;;;41.37;21.10;;;18.80;99.90;;;;;;4441119;28;659291;-68
2021/07/13 05:28:48;;;;;;;38.07;21.17;;;18.90;99.90;;;;;;4435189;28;658481;-68
2021/07/13 05:31:36;;;;;;;39.77;21.27;;;19.00;99.90;;;;;;4435469;28;659576;-68
2021/07/13 05:34:23;;;;;;;37.80;20.00;;;19.10;99.90;;;;;;4463899;28;658617;-68
2021/07/13 05:37:12;;;;;;;38.07;21.27;;;19.10;99.90;;;;;;4440926;28;659067;-68
2021/07/13 05:40:00;;;;;;;38.17;19.73;;;19.20;99.90;;;;;;4444910;28;658991;-68
2021/07/13 05:42:47;;;;;;;35.30;18.70;;;19.30;99.90;;;;;;4464457;28;659491;-68
2021/07/13 05:45:36;;;;;;;36.03;18.73;;;19.40;99.90;;;;;;4444301;28;658754;-68
2021/07/13 05:48:25;;;;;;;32.30;19.47;;;19.50;99.90;;;;;;4452767;28;658300;-68
2021/07/13 05:51:13;;;;;;;37.13;19.67;;;19.50;99.90;;;;;;4463261;28;658490;-68
2021/07/13 05:54:01;;;;;;;30.27;18.20;;;19.50;99.90;;;;;;4440997;28;660028;-68
2021/07/13 05:56:49;;;;;;;35.53;19.43;;;19.70;99.90;;;;;;4461483;28;658678;-68
2021/07/13 05:59:36;;;;;;;32.67;18.93;;;19.80;99.90;;;;;;4464034;28;658560;-68
2021/07/13 06:02:25;;;;;;;34.00;18.90;;;19.90;99.90;;;;;;4441916;28;658886;-68
2021/07/13 06:05:13;;;;;;;32.80;18.53;;;20.00;99.90;;;;;;4462852;28;658826;-68
2021/07/13 06:08:01;;;;;;;30.70;17.43;;;20.10;99.90;;;;;;4437833;28;659778;-68
2021/07/13 06:10:48;;;;;;;32.87;18.57;;;20.30;99.90;;;;;;4451516;28;659384;-68
2021/07/13 06:13:36;;;;;;;33.73;19.00;;;20.30;99.90;;;;;;4430502;28;659323;-68
2021/07/13 06:16:24;;;;;;;30.00;18.20;;;20.50;99.90;;;;;;4466646;28;658260;-69
2021/07/13 06:19:13;;;;;;;31.57;18.03;;;20.50;99.90;;;;;;4462865;28;659578;-68
2021/07/13 06:22:01;;;;;;;29.47;17.27;;;20.60;99.90;;;;;;4439834;28;659339;-68
2021/07/13 06:24:48;;;;;;;30.10;16.77;;;20.70;99.90;;;;;;4464483;28;659267;-68
2021/07/13 06:27:36;;;;;;;28.80;17.63;;;20.80;99.90;;;;;;4441127;28;659095;-68
2021/07/13 06:30:23;;;;;;;29.13;16.87;;;20.90;99.90;;;;;;4461453;28;658530;-69
2021/07/13 06:33:11;;;;;;;24.83;17.23;;;21.00;99.90;;;;;;4440870;28;659451;-68
2021/07/13 06:36:00;;;;;;;27.13;17.17;;;21.10;99.90;;;;;;4452298;28;660067;-68
2021/07/13 06:38:47;;;;;;;27.00;16.97;;;21.20;99.90;;;;;;4424679;28;660013;-68
2021/07/13 06:41:35;;;;;;;29.30;15.63;;;21.20;99.90;;;;;;4440010;28;658553;-69
2021/07/13 06:44:22;;;;;;;32.97;16.33;;;21.30;99.90;;;;;;4463227;28;658953;-69
2021/07/13 06:47:10;;;;;;;27.90;16.63;;;21.40;99.90;;;;;;4434900;28;659125;-69
2021/07/13 06:49:57;;;;;;;25.17;15.90;;;21.50;99.90;;;;;;4463486;28;659136;-68
2021/07/13 06:52:46;;;;;;;22.13;15.80;;;21.70;99.90;;;;;;4433120;28;658770;-69
2021/07/13 06:55:34;;;;;;;26.40;15.73;;;21.90;99.90;;;;;;4444310;28;658701;-68
2021/07/13 06:58:22;;;;;;;23.80;15.27;;;21.90;99.90;;;;;;4465501;27;659309;-68
2021/07/13 07:01:10;;;;;;;25.70;15.23;;;22.10;99.90;;;;;;4444993;28;658881;-68
2021/07/13 07:03:58;;;;;;;23.43;13.83;;;22.20;99.90;;;;;;4449047;28;658759;-68
2021/07/13 07:06:45;;;;;;;22.43;14.03;;;22.30;99.90;;;;;;4442907;28;659491;-69
2021/07/13 07:09:34;;;;;;;19.27;13.57;;;22.40;99.90;;;;;;4465467;28;658521;-69
2021/07/13 07:12:22;;;;;;;19.97;13.20;;;22.50;99.90;;;;;;4440637;28;659153;-68
2021/07/13 07:15:10;;;;;;;18.03;13.20;;;22.60;99.90;;;;;;4441871;28;658376;-68
2021/07/13 07:17:58;;;;;;;18.30;13.60;;;22.70;99.90;;;;;;4458507;28;658625;-68
2021/07/13 07:20:46;;;;;;;17.10;13.10;;;22.70;99.90;;;;;;4446534;28;659168;-69
2021/07/13 07:23:34;;;;;;;18.70;12.80;;;22.90;99.90;;;;;;4458423;28;658545;-68
2021/07/13 07:26:24;;;;;;;16.87;11.60;;;23.00;99.90;;;;;;4466099;28;659335;-68
2021/07/13 07:29:11;;;;;;;16.33;12.43;;;23.20;99.90;;;;;;4442748;28;659561;-68
2021/07/13 07:31:59;;;;;;;14.87;12.23;;;23.40;99.90;;;;;;4445822;28;658940;-69
2021/07/13 07:34:47;;;;;;;21.03;12.47;;;23.60;99.90;;;;;;4467260;28;660301;-69
2021/07/13 07:37:34;;;;;;;21.63;12.40;;;23.80;99.90;;;;;;4442198;28;658933;-69
2021/07/13 07:40:22;;;;;;;15.43;12.02;;;23.90;99.90;;;;;;4466080;28;659010;-69
2021/07/13 07:43:11;;;;;;;15.40;11.87;;;24.10;99.90;;;;;;4445904;28;659204;-68
2021/07/13 07:45:59;;;;;;;18.35;11.13;;;24.30;99.90;;;;;;4450711;28;659090;-69
2021/07/13 07:48:46;;;;;;;14.10;10.98;;;24.30;99.90;;;;;;4464949;28;658785;-69
2021/07/13 07:51:34;;;;;;;14.23;10.30;;;24.40;99.90;;;;;;4446727;28;658560;-69
2021/07/13 07:54:22;;;;;;;13.30;10.63;;;24.60;99.90;;;;;;4465233;28;659512;-69
2021/07/13 07:57:11;;;;;;;16.27;10.15;;;24.90;99.90;;;;;;4445437;28;658896;-69
2021/07/13 08:00:00;;;;;;;12.50;10.25;;;24.90;99.90;;;;;;4456731;28;658513;-69
2021/07/13 08:02:48;;;;;;;14.23;10.15;;;25.20;99.90;;;;;;4466617;28;658687;-69
2021/07/13 08:05:37;;;;;;;12.95;10.23;;;25.00;99.90;;;;;;4442842;28;659248;-69
2021/07/13 08:08:25;;;;;;;18.25;10.63;;;25.10;99.90;;;;;;4445073;28;658601;-69
2021/07/13 08:11:12;;;;;;;15.10;10.18;;;25.20;99.90;;;;;;4465133;28;659513;-69
2021/07/13 08:14:00;;;;;;;16.52;10.32;;;25.40;99.90;;;;;;4442826;28;658226;-69
2021/07/13 08:16:52;;;;;;;14.82;10.02;;;25.60;99.90;;;;;;4464221;28;658638;-69
2021/07/13 08:19:40;;;;;;;15.65;10.30;;;25.70;99.90;;;;;;4419199;28;659201;-70
2021/07/13 08:22:29;;;;;;;11.70;9.15;;;25.80;99.90;;;;;;4464971;28;660520;-69
2021/07/13 08:25:17;;;;;;;14.90;9.70;;;26.10;99.90;;;;;;4442337;28;659005;-70
2021/07/13 08:28:05;;;;;;;12.85;9.65;;;26.20;99.90;;;;;;4447195;28;657603;-69
2021/07/13 08:30:52;;;;;;;12.48;9.52;;;26.40;99.90;;;;;;4465577;28;658977;-69
2021/07/13 08:33:41;;;;;;;13.40;9.52;;;26.60;99.90;;;;;;4447702;28;658034;-69
2021/07/13 08:36:29;;;;;;;12.25;9.65;;;26.70;99.90;;;;;;4439919;28;658268;-69
2021/07/13 08:39:17;;;;;;;15.18;9.52;;;26.90;99.90;;;;;;4470532;28;658593;-69
2021/07/13 08:42:05;;;;;;;10.07;8.90;;;27.10;99.90;;;;;;4447641;28;657613;-70
2021/07/13 08:44:53;;;;;;;12.73;9.13;;;27.00;99.90;;;;;;4466274;28;657623;-69
2021/07/13 08:47:41;;;;;;;10.57;9.40;;;27.10;99.90;;;;;;4433265;28;658599;-69
2021/07/13 08:50:30;;;;;;;11.38;9.77;;;27.20;99.90;;;;;;4465686;28;657693;-69
2021/07/13 08:53:17;;;;;;;14.02;9.90;;;27.40;99.90;;;;;;4435922;28;658489;-70
2021/07/13 08:56:05;;;;;;;14.88;8.85;;;27.50;99.90;;;;;;4446044;28;657339;-69
2021/07/13 08:58:53;;;;;;;13.02;9.63;;;27.30;99.90;;;;;;4460197;28;657321;-69
2021/07/13 09:01:41;;;;;;;12.02;9.10;;;27.40;99.90;;;;;;4442006;28;658760;-70
2021/07/13 09:04:35;;;;;;;10.70;9.27;;;27.30;99.90;;;;;;4460005;28;657169;-70
2021/07/13 09:07:24;;;;;;;13.45;9.70;;;27.40;99.90;;;;;;4442936;28;657916;-69
2021/07/13 09:10:12;;;;;;;13.45;9.40;;;27.40;99.90;;;;;;4442329;28;657742;-69
2021/07/13 09:13:00;;;;;;;15.02;9.35;;;27.80;99.90;;;;;;4432581;28;657851;-69
2021/07/13 09:15:55;;;;;;;12.85;9.48;;;28.10;99.90;;;;;;4464906;28;658217;-70
2021/07/13 09:18:43;;;;;;;14.65;9.70;;;28.30;99.90;;;;;;4435638;28;658109;-69
2021/07/13 09:21:34;;;;;;;11.45;8.73;;;28.50;99.90;;;;;;4441763;28;658686;-69
2021/07/13 09:24:23;;;;;;;12.98;9.60;;;28.50;99.90;;;;;;4432771;28;658455;-69
2021/07/13 09:27:10;;;;;;;9.23;8.30;;;28.70;99.90;;;;;;4445029;28;657759;-69
2021/07/13 09:29:58;;;;;;;11.05;8.60;;;28.90;99.90;;;;;;4466934;28;656582;-69
2021/07/13 09:32:46;;;;;;;12.00;8.10;;;29.20;99.90;;;;;;4446133;28;657849;-69
2021/07/13 09:35:35;;;;;;;11.75;7.90;;;29.40;99.90;;;;;;4465291;28;657946;-69
2021/07/13 09:38:23;;;;;;;12.73;7.40;;;29.40;99.90;;;;;;4446861;28;658563;-69
2021/07/13 09:41:14;;;;;;;11.27;8.30;;;29.40;99.90;;;;;;4446637;28;658297;-69
2021/07/13 09:44:04;;;;;;;12.23;8.70;;;29.60;99.90;;;;;;4441816;28;658320;-70
2021/07/13 09:46:51;;;;;;;11.30;8.57;;;29.60;99.90;;;;;;4445783;28;657921;-69
2021/07/13 09:49:40;;;;;;;13.95;8.35;;;29.70;99.90;;;;;;4443073;28;657222;-69
2021/07/13 09:52:28;;;;;;;12.27;8.23;;;30.00;99.90;;;;;;4464593;28;657875;-69
2021/07/13 09:55:16;;;;;;;15.88;8.30;;;30.30;99.90;;;;;;4445609;28;658055;-69
2021/07/13 09:58:16;;;;;;;11.10;8.45;;;30.50;99.90;;;;;;4448080;28;657555;-70
2021/07/13 10:01:04;;;;;;;9.35;8.38;;;30.80;99.90;;;;;;4438441;28;658276;-70
2021/07/13 10:03:52;;;;;;;12.50;9.30;;;30.70;99.90;;;;;;4469535;28;657429;-69
2021/07/13 10:06:39;;;;;;;10.02;8.30;;;30.70;99.90;;;;;;4445383;28;657948;-69
2021/07/13 10:09:29;;;;;;;13.20;8.13;;;30.80;99.90;;;;;;4467745;28;657213;-69
2021/07/13 10:12:18;;;;;;;11.38;7.57;;;31.00;99.90;;;;;;4442255;28;658272;-69
2021/07/13 10:15:08;;;;;;;14.18;8.75;;;31.20;99.90;;;;;;4445700;28;658233;-69
2021/07/13 10:17:56;;;;;;;11.82;7.90;;;31.30;99.90;;;;;;4445225;28;658258;-69
2021/07/13 10:20:44;;;;;;;11.82;8.30;;;31.40;99.90;;;;;;4456239;28;657586;-69
2021/07/13 10:23:32;;;;;;;12.73;8.02;;;31.30;99.90;;;;;;4466161;28;657954;-69
2021/07/13 10:26:44;;;;;;;11.77;8.30;;;31.20;99.90;;;;;;4447294;28;658034;-69
2021/07/13 10:29:41;;;;;;;10.77;7.53;;;31.20;99.90;;;;;;4420408;28;658075;-69
2021/07/13 10:32:38;;;;;;;9.00;7.50;;;31.20;99.90;;;;;;4467530;27;657394;-69
2021/07/13 10:35:28;;;;;;;11.98;7.63;;;31.20;99.90;;;;;;4425728;27;656723;-69
2021/07/13 10:38:23;;;;;;;11.95;7.05;;;31.60;99.90;;;;;;4447362;27;659162;-69
2021/07/13 10:41:12;;;;;;;13.13;7.57;;;31.40;99.90;;;;;;4450886;27;657973;-69
2021/07/13 10:44:00;;;;;;;10.63;7.88;;;31.70;99.90;;;;;;4444148;28;657918;-69
2021/07/13 10:47:13;;;;;;;12.77;8.65;;;31.90;99.90;;;;;;4468706;28;657817;-69
2021/07/13 10:50:39;;;;;;;12.40;7.80;;;32.20;99.90;;;;;;4425184;28;657511;-69
2021/07/13 10:53:31;;;;;;;8.82;7.43;;;31.90;99.90;;;;;;4421833;28;658651;-69
2021/07/13 10:56:19;;;;;;;11.50;9.02;;;31.80;99.90;;;;;;4439337;28;656537;-69
2021/07/13 10:59:23;;;;;;;19.60;10.25;;;31.60;99.90;;;;;;4472296;28;658616;-69
2021/07/13 11:02:10;;;;;;;14.57;9.83;;;32.00;99.90;;;;;;4425338;28;660614;-69
2021/07/13 11:04:58;;;;;;;15.00;10.27;;;32.00;99.90;;;;;;4434028;28;657748;-69
2021/07/13 11:07:47;;;;;;;15.38;10.30;;;31.90;99.90;;;;;;4448525;28;659437;-69
2021/07/13 11:10:38;;;;;;;14.45;9.85;;;32.10;99.90;;;;;;4447781;28;658819;-69
2021/07/13 11:13:26;;;;;;;15.40;9.48;;;32.00;99.90;;;;;;4444677;28;659157;-69
2021/07/13 11:16:14;;;;;;;11.80;9.20;;;32.20;99.90;;;;;;4468322;28;657541;-69
2021/07/13 11:19:04;;;;;;;12.45;9.20;;;32.40;99.90;;;;;;4434705;28;658461;-69
2021/07/13 11:21:52;;;;;;;10.67;8.93;;;32.50;99.90;;;;;;4428612;28;658037;-69
2021/07/13 11:24:41;;;;;;;12.50;8.25;;;32.70;99.90;;;;;;4431841;28;657703;-69
2021/07/13 11:27:29;;;;;;;10.17;8.53;;;32.70;99.90;;;;;;4431851;28;658093;-69
2021/07/13 11:30:17;;;;;;;10.02;8.13;;;32.80;99.90;;;;;;4453328;28;658613;-69
2021/07/13 11:33:06;;;;;;;12.30;7.78;;;32.60;99.90;;;;;;4431934;28;657928;-69
2021/07/13 11:35:55;;;;;;;9.60;7.57;;;32.60;99.90;;;;;;4440955;28;657789;-69
2021/07/13 11:38:42;;;;;;;10.73;7.70;;;32.80;99.90;;;;;;4452165;28;657752;-69
2021/07/13 11:41:32;;;;;;;8.07;6.90;;;32.60;99.90;;;;;;4432132;28;657472;-69
2021/07/13 11:44:20;;;;;;;12.70;7.55;;;32.70;99.90;;;;;;4417019;28;656922;-70
2021/07/13 11:47:09;;;;;;;12.48;7.07;;;33.10;99.90;;;;;;4450731;28;658577;-69
2021/07/13 11:49:56;;;;;;;8.57;7.07;;;33.30;99.90;;;;;;4428404;28;658301;-69
2021/07/13 11:52:44;;;;;;;8.70;7.32;;;33.10;99.90;;;;;;4433173;28;657088;-69
2021/07/13 11:55:32;;;;;;;9.02;6.70;;;32.80;99.90;;;;;;4449726;28;657516;-69
2021/07/13 11:58:27;;;;;;;9.35;7.18;;;33.00;99.90;;;;;;4432466;28;656984;-69
2021/07/13 12:01:18;;;;;;;10.07;7.27;;;33.30;99.90;;;;;;4405156;28;656476;-69
2021/07/13 12:04:07;;;;;;;10.57;7.47;;;33.20;99.90;;;;;;4427040;28;658832;-69
2021/07/13 12:06:55;;;;;;;10.40;7.30;;;33.30;99.90;;;;;;4424493;28;657393;-69
2021/07/13 12:09:43;;;;;;;13.00;7.75;;;33.30;99.90;;;;;;4447900;28;657886;-70
2021/07/13 12:12:34;;;;;;;10.57;7.38;;;33.60;99.90;;;;;;4429974;28;658035;-69
2021/07/13 12:15:23;;;;;;;9.40;7.17;;;33.60;99.90;;;;;;4427183;28;658488;-70
2021/07/13 12:18:11;;;;;;;9.88;7.55;;;33.70;99.90;;;;;;4436434;28;656857;-69
2021/07/13 12:20:59;;;;;;;13.88;7.68;;;33.80;99.90;;;;;;4446738;28;656497;-69
2021/07/13 12:23:49;;;;;;;12.88;8.40;;;33.70;99.90;;;;;;4462760;28;658607;-70
2021/07/13 12:26:37;;;;;;;9.63;8.00;;;33.80;99.90;;;;;;4427977;28;658645;-70
2021/07/13 12:29:25;;;;;;;12.48;8.15;;;33.80;99.90;;;;;;4447696;28;656519;-70
2021/07/13 12:32:18;;;;;;;9.25;7.38;;;33.90;99.90;;;;;;4465681;28;657819;-69
2021/07/13 12:35:09;;;;;;;10.75;8.27;;;33.90;99.90;;;;;;4448507;28;656899;-70
2021/07/13 12:37:57;;;;;;;11.40;8.10;;;34.20;99.90;;;;;;4443642;28;658512;-69
2021/07/13 12:40:44;;;;;;;10.75;7.97;;;34.10;99.90;;;;;;4438041;28;657579;-69
2021/07/13 12:43:32;;;;;;;9.85;8.15;;;34.10;99.90;;;;;;4463141;28;658788;-70
2021/07/13 12:46:26;;;;;;;9.80;8.30;;;33.70;99.90;;;;;;4447970;28;656736;-69
2021/07/13 12:49:16;;;;;;;10.40;7.67;;;34.00;99.90;;;;;;4443029;28;656670;-68
2021/07/13 12:52:09;;;;;;;9.80;7.70;;;34.20;99.70;;;;;;4465019;28;657743;-69
2021/07/13 12:54:58;;;;;;;10.02;8.27;;;34.30;97.50;;;;;;4437468;28;656717;-70
2021/07/13 12:57:46;;;;;;;10.70;7.90;;;34.10;98.90;;;;;;4438419;28;658766;-70
2021/07/13 13:00:34;;;;;;;13.82;7.60;;;34.00;99.10;;;;;;4456523;28;658143;-68
2021/07/13 13:03:22;;;;;;;8.93;7.95;;;34.40;98.00;;;;;;4463011;28;658855;-70
2021/07/13 13:06:12;;;;;;;9.38;7.85;;;34.50;98.00;;;;;;4447736;28;656241;-69
2021/07/13 13:08:59;;;;;;;8.63;7.72;;;34.40;97.50;;;;;;4447885;28;656531;-69
2021/07/13 13:11:47;;;;;;;11.85;8.45;;;34.60;96.80;;;;;;4466876;28;657495;-69
2021/07/13 13:14:34;;;;;;;11.98;8.07;;;34.60;95.70;;;;;;4444489;28;657954;-69
2021/07/13 13:17:23;;;;;;;9.20;7.90;;;34.20;95.80;;;;;;4465102;28;658207;-70
2021/07/13 13:20:11;;;;;;;10.27;7.70;;;34.40;95.80;;;;;;4442499;28;656421;-70
2021/07/13 13:23:10;;;;;;;10.80;8.57;;;34.50;96.20;;;;;;4447849;28;657499;-69
2021/07/13 13:25:57;;;;;;;10.27;7.63;;;34.60;95.50;;;;;;4442384;28;657434;-70
2021/07/13 13:28:45;;;;;;;12.80;7.47;;;34.60;94.50;;;;;;4439931;28;658060;-69
2021/07/13 13:31:32;;;;;;;11.48;7.07;;;34.70;93.60;;;;;;4463367;28;657824;-69
2021/07/13 13:34:22;;;;;;;12.90;7.40;;;34.70;93.30;;;;;;4445696;28;657821;-69
2021/07/13 13:37:11;;;;;;;9.43;7.63;;;34.80;93.00;;;;;;4436692;28;657919;-69
2021/07/13 13:40:00;;;;;;;12.98;7.28;;;34.80;92.80;;;;;;4463165;28;656733;-69
2021/07/13 13:42:47;;;;;;;11.15;7.20;;;34.80;92.20;;;;;;4436395;28;657556;-70
2021/07/13 13:45:35;;;;;;;8.82;7.22;;;34.60;92.10;;;;;;4439404;28;657419;-71
2021/07/13 13:48:23;;;;;;;9.00;6.78;;;34.60;92.40;;;;;;4465624;28;656850;-70
2021/07/13 13:51:11;;;;;;;9.93;7.40;;;34.40;92.80;;;;;;4437940;28;657856;-69
2021/07/13 13:53:58;;;;;;;8.80;7.28;;;34.40;92.20;;;;;;4465918;28;656605;-69
2021/07/13 13:56:47;;;;;;;8.48;7.13;;;34.50;93.00;;;;;;4437617;28;657419;-70
2021/07/13 13:59:35;;;;;;;10.57;7.00;;;34.40;93.00;;;;;;4445534;28;656534;-70
2021/07/13 14:02:22;;;;;;;8.10;6.75;;;34.40;93.30;;;;;;4464528;28;658227;-69
2021/07/13 14:05:11;;;;;;;9.45;6.68;;;34.60;92.90;;;;;;4446736;28;656393;-69
2021/07/13 14:07:58;;;;;;;13.38;6.68;;;34.80;92.70;;;;;;4469243;28;656737;-71
2021/07/13 14:10:46;;;;;;;8.77;6.38;;;35.10;93.00;;;;;;4449264;28;658398;-70
2021/07/13 14:13:36;;;;;;;9.88;6.70;;;35.30;92.10;;;;;;4462994;28;656778;-68